LIBQ  Monte Scuro Airport

Add Bookmark

Italy

Status
Operational
Latitude Longitude
39° 19' 12" N 16° 22' 47" E
39.320000 16.380000
Local (DST + 2) UTC (GMT + 1)
Oct 31, 2014 05:45 Oct 31, 2014 04:45
Sunrise-Sunset Local UTC
Begin Civil Twilight 05:52 04:52
Sunrise 06:20 05:20
Sunset 04:55 15:55
End Civil Twilight 05:23 16:23

Current Weather

METAR Observed LIFR
LIBQ 310355Z 05018KT 0000 FG VV/// 01/01 Q1018 Fri, Oct 31, 2014 @ 03:55 UTC
(50 Minutes ago)
Low Instrument Flight Rules
Wind Visibility Clouds Conditions
050° at 18 knots (33 kph) Less than 50 metres
  • Fog
Temperatures Readings Precipitation
Current Temp 1°C (34°F)
Dewpoint 1°C (34°F)
Humidity 100%
Altimeter 30.06"Hg
Sea Level Pressure 1018mb
Field Elevation 5643.04'
None Recorded

Additional weather within a 92.6km radius of LIBQ

Map ICAO Location
LICA 47.6km S (195°)
LIBC 70.2km E (121°)

24 Hour Weather History

Loading
-

24 Hour Weather Graphs

Loading
-

CheckWX.com is intended as a tool to help pilots better visualize weather data. It is not intended as a substitute for an official weather briefing obtained from a Flight Service Station. CheckWX.com does not meet the FAA requirements for an official pre-flight weather briefing. Therefore, it's important that pilots still call and obtain an official FSS pre-flight weather briefing.